sensor_id;sensor_type;location;lat;lon;timestamp;P1;durP1;ratioP1;P2;durP2;ratioP2
71080;SDS011;58740;50.672;18.690;2023-02-28T00:01:41;18.40;;;6.50;;
71080;SDS011;58740;50.672;18.690;2023-02-28T00:04:08;20.50;;;7.80;;
71080;SDS011;58740;50.672;18.690;2023-02-28T00:06:36;18.60;;;7.90;;
71080;SDS011;58740;50.672;18.690;2023-02-28T00:09:04;17.80;;;7.30;;
71080;SDS011;58740;50.672;18.690;2023-02-28T00:11:32;16.70;;;6.80;;
71080;SDS011;58740;50.672;18.690;2023-02-28T00:14:00;16.10;;;7.00;;
71080;SDS011;58740;50.672;18.690;2023-02-28T00:16:28;15.70;;;6.30;;
71080;SDS011;58740;50.672;18.690;2023-02-28T00:18:56;14.50;;;7.00;;
71080;SDS011;58740;50.672;18.690;2023-02-28T00:21:23;17.20;;;7.70;;
71080;SDS011;58740;50.672;18.690;2023-02-28T00:23:51;13.90;;;6.10;;
71080;SDS011;58740;50.672;18.690;2023-02-28T00:26:19;16.10;;;5.90;;
71080;SDS011;58740;50.672;18.690;2023-02-28T00:28:48;10.60;;;4.90;;
71080;SDS011;58740;50.672;18.690;2023-02-28T00:31:16;16.00;;;7.10;;
71080;SDS011;58740;50.672;18.690;2023-02-28T00:33:44;13.60;;;6.60;;
71080;SDS011;58740;50.672;18.690;2023-02-28T00:36:11;17.40;;;7.70;;
71080;SDS011;58740;50.672;18.690;2023-02-28T00:38:40;16.30;;;6.80;;
71080;SDS011;58740;50.672;18.690;2023-02-28T00:41:09;13.50;;;6.30;;
71080;SDS011;58740;50.672;18.690;2023-02-28T00:43:38;12.50;;;6.40;;
71080;SDS011;58740;50.672;18.690;2023-02-28T00:46:07;16.20;;;5.30;;
71080;SDS011;58740;50.672;18.690;2023-02-28T00:48:35;13.40;;;5.20;;
71080;SDS011;58740;50.672;18.690;2023-02-28T00:51:03;11.80;;;6.00;;
71080;SDS011;58740;50.672;18.690;2023-02-28T00:53:32;16.20;;;6.60;;
71080;SDS011;58740;50.672;18.690;2023-02-28T00:56:00;15.80;;;6.70;;
71080;SDS011;58740;50.672;18.690;2023-02-28T00:58:29;13.50;;;5.90;;
71080;SDS011;58740;50.672;18.690;2023-02-28T01:00:56;13.20;;;6.20;;
71080;SDS011;58740;50.672;18.690;2023-02-28T01:03:25;15.20;;;6.20;;
71080;SDS011;58740;50.672;18.690;2023-02-28T01:05:52;14.20;;;6.90;;
71080;SDS011;58740;50.672;18.690;2023-02-28T01:08:21;11.40;;;5.30;;
71080;SDS011;58740;50.672;18.690;2023-02-28T01:10:49;18.40;;;6.40;;
71080;SDS011;58740;50.672;18.690;2023-02-28T01:13:18;14.60;;;7.00;;
71080;SDS011;58740;50.672;18.690;2023-02-28T01:15:52;17.10;;;7.10;;
71080;SDS011;58740;50.672;18.690;2023-02-28T01:18:23;14.60;;;6.70;;
71080;SDS011;58740;50.672;18.690;2023-02-28T01:20:52;17.10;;;7.20;;
71080;SDS011;58740;50.672;18.690;2023-02-28T01:23:21;16.10;;;6.70;;
71080;SDS011;58740;50.672;18.690;2023-02-28T01:25:51;18.40;;;8.10;;
71080;SDS011;58740;50.672;18.690;2023-02-28T01:28:19;17.70;;;7.90;;
71080;SDS011;58740;50.672;18.690;2023-02-28T01:30:49;16.90;;;7.40;;
71080;SDS011;58740;50.672;18.690;2023-02-28T01:33:17;18.00;;;7.70;;
71080;SDS011;58740;50.672;18.690;2023-02-28T01:35:45;19.70;;;7.80;;
71080;SDS011;58740;50.672;18.690;2023-02-28T01:38:13;18.40;;;8.40;;
71080;SDS011;58740;50.672;18.690;2023-02-28T01:40:50;20.90;;;8.40;;
71080;SDS011;58740;50.672;18.690;2023-02-28T01:43:30;18.90;;;8.70;;
71080;SDS011;58740;50.672;18.690;2023-02-28T01:46:00;17.00;;;6.70;;
71080;SDS011;58740;50.672;18.690;2023-02-28T01:48:32;19.80;;;7.10;;
71080;SDS011;58740;50.672;18.690;2023-02-28T01:51:11;17.90;;;7.90;;
71080;SDS011;58740;50.672;18.690;2023-02-28T01:53:47;18.80;;;7.80;;
71080;SDS011;58740;50.672;18.690;2023-02-28T01:56:23;19.30;;;8.30;;
71080;SDS011;58740;50.672;18.690;2023-02-28T01:58:55;20.60;;;7.80;;
71080;SDS011;58740;50.672;18.690;2023-02-28T02:01:25;21.20;;;8.00;;
71080;SDS011;58740;50.672;18.690;2023-02-28T02:03:57;16.10;;;7.30;;
71080;SDS011;58740;50.672;18.690;2023-02-28T02:06:34;17.60;;;7.60;;
71080;SDS011;58740;50.672;18.690;2023-02-28T02:09:04;17.40;;;7.50;;
71080;SDS011;58740;50.672;18.690;2023-02-28T02:11:34;18.10;;;7.40;;
71080;SDS011;58740;50.672;18.690;2023-02-28T02:17:18;17.80;;;7.00;;
71080;SDS011;58740;50.672;18.690;2023-02-28T02:23:50;15.60;;;7.00;;
71080;SDS011;58740;50.672;18.690;2023-02-28T02:38:52;15.90;;;6.30;;
71080;SDS011;58740;50.672;18.690;2023-02-28T02:44:38;15.20;;;5.40;;
71080;SDS011;58740;50.672;18.690;2023-02-28T02:47:15;14.90;;;5.60;;
71080;SDS011;58740;50.672;18.690;2023-02-28T02:49:50;12.80;;;5.10;;
71080;SDS011;58740;50.672;18.690;2023-02-28T02:52:27;15.80;;;6.20;;
71080;SDS011;58740;50.672;18.690;2023-02-28T02:55:02;16.00;;;7.00;;
71080;SDS011;58740;50.672;18.690;2023-02-28T02:57:47;12.50;;;5.70;;
71080;SDS011;58740;50.672;18.690;2023-02-28T03:00:26;11.60;;;4.80;;
71080;SDS011;58740;50.672;18.690;2023-02-28T03:03:01;13.50;;;6.30;;
71080;SDS011;58740;50.672;18.690;2023-02-28T03:05:35;13.40;;;5.50;;
71080;SDS011;58740;50.672;18.690;2023-02-28T03:08:11;12.40;;;5.40;;
71080;SDS011;58740;50.672;18.690;2023-02-28T03:10:44;13.50;;;5.60;;
71080;SDS011;58740;50.672;18.690;2023-02-28T03:13:26;14.90;;;5.30;;
71080;SDS011;58740;50.672;18.690;2023-02-28T03:18:50;11.90;;;5.40;;
71080;SDS011;58740;50.672;18.690;2023-02-28T03:24:57;10.90;;;4.40;;
71080;SDS011;58740;50.672;18.690;2023-02-28T03:30:41;11.20;;;5.30;;
71080;SDS011;58740;50.672;18.690;2023-02-28T03:33:31;10.30;;;4.90;;
71080;SDS011;58740;50.672;18.690;2023-02-28T03:36:11;12.30;;;5.40;;
71080;SDS011;58740;50.672;18.690;2023-02-28T03:38:49;9.70;;;4.30;;
71080;SDS011;58740;50.672;18.690;2023-02-28T03:41:49;8.20;;;4.40;;
71080;SDS011;58740;50.672;18.690;2023-02-28T03:44:36;10.30;;;4.60;;
71080;SDS011;58740;50.672;18.690;2023-02-28T03:47:36;10.30;;;4.80;;
71080;SDS011;58740;50.672;18.690;2023-02-28T03:50:13;10.40;;;4.30;;
71080;SDS011;58740;50.672;18.690;2023-02-28T03:55:54;11.00;;;4.40;;
71080;SDS011;58740;50.672;18.690;2023-02-28T03:58:28;12.30;;;5.20;;
71080;SDS011;58740;50.672;18.690;2023-02-28T04:01:14;12.90;;;6.60;;
71080;SDS011;58740;50.672;18.690;2023-02-28T04:03:46;11.80;;;5.70;;
71080;SDS011;58740;50.672;18.690;2023-02-28T04:06:17;9.80;;;5.00;;
71080;SDS011;58740;50.672;18.690;2023-02-28T04:08:48;11.50;;;5.30;;
71080;SDS011;58740;50.672;18.690;2023-02-28T04:13:59;11.90;;;5.00;;
71080;SDS011;58740;50.672;18.690;2023-02-28T04:16:27;13.60;;;5.50;;
71080;SDS011;58740;50.672;18.690;2023-02-28T04:19:04;11.60;;;5.20;;
71080;SDS011;58740;50.672;18.690;2023-02-28T04:21:34;11.40;;;4.80;;
71080;SDS011;58740;50.672;18.690;2023-02-28T04:24:03;11.90;;;4.80;;
71080;SDS011;58740;50.672;18.690;2023-02-28T04:26:36;10.50;;;5.30;;
71080;SDS011;58740;50.672;18.690;2023-02-28T04:29:05;12.60;;;5.30;;
71080;SDS011;58740;50.672;18.690;2023-02-28T04:31:34;16.10;;;6.10;;
71080;SDS011;58740;50.672;18.690;2023-02-28T04:34:02;12.00;;;5.00;;
71080;SDS011;58740;50.672;18.690;2023-02-28T04:36:30;14.10;;;5.60;;
71080;SDS011;58740;50.672;18.690;2023-02-28T04:38:58;15.80;;;6.90;;
71080;SDS011;58740;50.672;18.690;2023-02-28T04:41:26;15.30;;;6.00;;
71080;SDS011;58740;50.672;18.690;2023-02-28T04:43:58;22.00;;;7.00;;
71080;SDS011;58740;50.672;18.690;2023-02-28T04:46:26;14.50;;;6.90;;
71080;SDS011;58740;50.672;18.690;2023-02-28T04:48:53;19.10;;;8.30;;
71080;SDS011;58740;50.672;18.690;2023-02-28T04:51:22;17.10;;;7.70;;
71080;SDS011;58740;50.672;18.690;2023-02-28T04:53:50;16.10;;;8.50;;
71080;SDS011;58740;50.672;18.690;2023-02-28T04:56:18;17.20;;;7.90;;
71080;SDS011;58740;50.672;18.690;2023-02-28T04:58:46;21.40;;;8.20;;
71080;SDS011;58740;50.672;18.690;2023-02-28T05:01:28;15.80;;;8.00;;
71080;SDS011;58740;50.672;18.690;2023-02-28T05:04:00;18.90;;;8.60;;
71080;SDS011;58740;50.672;18.690;2023-02-28T05:06:31;20.40;;;8.90;;
71080;SDS011;58740;50.672;18.690;2023-02-28T05:09:00;20.80;;;9.60;;
71080;SDS011;58740;50.672;18.690;2023-02-28T05:11:31;22.20;;;9.20;;
71080;SDS011;58740;50.672;18.690;2023-02-28T05:14:10;23.70;;;12.00;;
71080;SDS011;58740;50.672;18.690;2023-02-28T05:16:40;23.40;;;11.00;;
71080;SDS011;58740;50.672;18.690;2023-02-28T05:19:08;53.70;;;19.30;;
71080;SDS011;58740;50.672;18.690;2023-02-28T05:21:39;57.30;;;21.30;;
71080;SDS011;58740;50.672;18.690;2023-02-28T05:24:11;128.80;;;40.90;;
71080;SDS011;58740;50.672;18.690;2023-02-28T05:26:41;138.50;;;41.40;;
71080;SDS011;58740;50.672;18.690;2023-02-28T05:29:10;119.60;;;39.10;;
71080;SDS011;58740;50.672;18.690;2023-02-28T05:31:38;88.80;;;30.70;;
71080;SDS011;58740;50.672;18.690;2023-02-28T05:34:06;78.90;;;24.80;;
71080;SDS011;58740;50.672;18.690;2023-02-28T05:36:36;50.50;;;17.80;;
71080;SDS011;58740;50.672;18.690;2023-02-28T05:39:07;21.30;;;9.80;;
71080;SDS011;58740;50.672;18.690;2023-02-28T05:41:43;23.20;;;9.50;;
71080;SDS011;58740;50.672;18.690;2023-02-28T05:44:11;26.60;;;10.90;;
71080;SDS011;58740;50.672;18.690;2023-02-28T05:46:39;25.30;;;11.20;;
71080;SDS011;58740;50.672;18.690;2023-02-28T05:49:07;25.60;;;11.50;;
71080;SDS011;58740;50.672;18.690;2023-02-28T05:51:35;27.10;;;11.40;;
71080;SDS011;58740;50.672;18.690;2023-02-28T05:54:07;26.20;;;11.90;;
71080;SDS011;58740;50.672;18.690;2023-02-28T05:56:35;25.50;;;12.20;;
71080;SDS011;58740;50.672;18.690;2023-02-28T05:59:05;32.50;;;15.30;;
71080;SDS011;58740;50.672;18.690;2023-02-28T06:01:42;56.60;;;23.00;;
71080;SDS011;58740;50.672;18.690;2023-02-28T06:04:19;61.90;;;25.60;;
71080;SDS011;58740;50.672;18.690;2023-02-28T06:06:58;78.50;;;31.40;;
71080;SDS011;58740;50.672;18.690;2023-02-28T06:09:26;93.50;;;36.90;;
71080;SDS011;58740;50.672;18.690;2023-02-28T06:11:54;78.90;;;30.80;;
71080;SDS011;58740;50.672;18.690;2023-02-28T06:14:24;69.10;;;29.60;;
71080;SDS011;58740;50.672;18.690;2023-02-28T06:16:53;62.20;;;27.20;;
71080;SDS011;58740;50.672;18.690;2023-02-28T06:19:20;46.90;;;22.10;;
71080;SDS011;58740;50.672;18.690;2023-02-28T06:21:50;35.20;;;16.80;;
71080;SDS011;58740;50.672;18.690;2023-02-28T06:24:21;35.00;;;16.60;;
71080;SDS011;58740;50.672;18.690;2023-02-28T06:26:51;29.50;;;11.90;;
71080;SDS011;58740;50.672;18.690;2023-02-28T06:29:18;26.70;;;11.90;;
71080;SDS011;58740;50.672;18.690;2023-02-28T06:31:47;24.60;;;10.10;;
71080;SDS011;58740;50.672;18.690;2023-02-28T06:34:15;19.90;;;9.10;;
71080;SDS011;58740;50.672;18.690;2023-02-28T06:36:43;18.00;;;8.20;;
71080;SDS011;58740;50.672;18.690;2023-02-28T06:39:11;23.80;;;9.90;;
71080;SDS011;58740;50.672;18.690;2023-02-28T06:41:39;28.00;;;10.80;;
71080;SDS011;58740;50.672;18.690;2023-02-28T06:44:22;20.60;;;9.60;;
71080;SDS011;58740;50.672;18.690;2023-02-28T06:46:50;28.80;;;9.60;;
71080;SDS011;58740;50.672;18.690;2023-02-28T06:49:18;20.50;;;7.50;;
71080;SDS011;58740;50.672;18.690;2023-02-28T06:51:46;19.50;;;6.50;;
71080;SDS011;58740;50.672;18.690;2023-02-28T06:54:14;18.00;;;6.40;;
71080;SDS011;58740;50.672;18.690;2023-02-28T06:56:41;14.80;;;5.90;;
71080;SDS011;58740;50.672;18.690;2023-02-28T06:59:09;16.30;;;5.70;;
71080;SDS011;58740;50.672;18.690;2023-02-28T07:01:37;10.40;;;5.10;;
71080;SDS011;58740;50.672;18.690;2023-02-28T07:04:06;14.10;;;6.30;;
71080;SDS011;58740;50.672;18.690;2023-02-28T07:06:34;9.70;;;4.10;;
71080;SDS011;58740;50.672;18.690;2023-02-28T07:09:02;19.50;;;7.80;;
71080;SDS011;58740;50.672;18.690;2023-02-28T07:11:31;20.60;;;7.50;;
71080;SDS011;58740;50.672;18.690;2023-02-28T07:13:59;12.00;;;5.30;;
71080;SDS011;58740;50.672;18.690;2023-02-28T07:16:27;11.50;;;4.50;;
71080;SDS011;58740;50.672;18.690;2023-02-28T07:18:55;11.30;;;5.50;;
71080;SDS011;58740;50.672;18.690;2023-02-28T07:21:23;14.90;;;6.00;;
71080;SDS011;58740;50.672;18.690;2023-02-28T07:23:51;10.00;;;3.90;;
71080;SDS011;58740;50.672;18.690;2023-02-28T07:26:19;8.50;;;3.50;;
71080;SDS011;58740;50.672;18.690;2023-02-28T07:28:49;10.10;;;3.30;;
71080;SDS011;58740;50.672;18.690;2023-02-28T07:31:18;8.20;;;3.70;;
71080;SDS011;58740;50.672;18.690;2023-02-28T07:33:46;9.00;;;4.40;;
71080;SDS011;58740;50.672;18.690;2023-02-28T07:36:15;8.10;;;3.60;;
71080;SDS011;58740;50.672;18.690;2023-02-28T07:38:47;8.90;;;3.40;;
71080;SDS011;58740;50.672;18.690;2023-02-28T07:41:19;7.20;;;3.40;;
71080;SDS011;58740;50.672;18.690;2023-02-28T07:43:49;7.20;;;3.40;;
71080;SDS011;58740;50.672;18.690;2023-02-28T07:46:17;8.80;;;3.50;;
71080;SDS011;58740;50.672;18.690;2023-02-28T07:48:46;5.70;;;2.60;;
71080;SDS011;58740;50.672;18.690;2023-02-28T07:51:13;7.00;;;3.20;;
71080;SDS011;58740;50.672;18.690;2023-02-28T07:53:41;8.20;;;4.00;;
71080;SDS011;58740;50.672;18.690;2023-02-28T07:56:10;10.30;;;4.70;;
71080;SDS011;58740;50.672;18.690;2023-02-28T07:58:38;10.10;;;3.90;;
71080;SDS011;58740;50.672;18.690;2023-02-28T08:01:08;7.60;;;3.70;;
71080;SDS011;58740;50.672;18.690;2023-02-28T08:03:37;9.00;;;3.20;;
71080;SDS011;58740;50.672;18.690;2023-02-28T08:06:08;13.00;;;5.30;;
71080;SDS011;58740;50.672;18.690;2023-02-28T08:08:44;8.40;;;3.90;;
71080;SDS011;58740;50.672;18.690;2023-02-28T08:11:12;12.90;;;5.90;;
71080;SDS011;58740;50.672;18.690;2023-02-28T08:13:40;14.10;;;5.70;;
71080;SDS011;58740;50.672;18.690;2023-02-28T08:16:11;10.80;;;4.70;;
71080;SDS011;58740;50.672;18.690;2023-02-28T08:18:50;9.10;;;4.60;;
71080;SDS011;58740;50.672;18.690;2023-02-28T08:21:20;12.50;;;5.20;;
71080;SDS011;58740;50.672;18.690;2023-02-28T08:23:50;8.70;;;3.30;;
71080;SDS011;58740;50.672;18.690;2023-02-28T08:26:19;10.40;;;4.20;;
71080;SDS011;58740;50.672;18.690;2023-02-28T08:28:48;13.80;;;6.20;;
71080;SDS011;58740;50.672;18.690;2023-02-28T08:31:16;9.20;;;3.80;;
71080;SDS011;58740;50.672;18.690;2023-02-28T08:33:45;12.80;;;4.60;;
71080;SDS011;58740;50.672;18.690;2023-02-28T08:36:16;9.40;;;3.80;;
71080;SDS011;58740;50.672;18.690;2023-02-28T08:38:44;7.60;;;3.20;;
71080;SDS011;58740;50.672;18.690;2023-02-28T08:41:13;9.80;;;3.80;;
71080;SDS011;58740;50.672;18.690;2023-02-28T08:43:41;9.00;;;4.20;;
71080;SDS011;58740;50.672;18.690;2023-02-28T08:46:12;7.50;;;3.10;;
71080;SDS011;58740;50.672;18.690;2023-02-28T08:48:41;9.80;;;4.70;;
71080;SDS011;58740;50.672;18.690;2023-02-28T08:51:16;8.30;;;3.50;;
71080;SDS011;58740;50.672;18.690;2023-02-28T08:53:49;12.30;;;4.30;;
71080;SDS011;58740;50.672;18.690;2023-02-28T08:56:17;7.20;;;3.00;;
71080;SDS011;58740;50.672;18.690;2023-02-28T08:58:47;9.10;;;4.40;;
71080;SDS011;58740;50.672;18.690;2023-02-28T09:01:18;10.90;;;4.90;;
71080;SDS011;58740;50.672;18.690;2023-02-28T09:03:50;9.20;;;4.40;;
71080;SDS011;58740;50.672;18.690;2023-02-28T09:06:20;7.50;;;3.50;;
71080;SDS011;58740;50.672;18.690;2023-02-28T09:08:50;8.80;;;3.70;;
71080;SDS011;58740;50.672;18.690;2023-02-28T09:11:19;11.20;;;4.20;;
71080;SDS011;58740;50.672;18.690;2023-02-28T09:13:47;11.40;;;5.60;;
71080;SDS011;58740;50.672;18.690;2023-02-28T09:16:16;11.50;;;4.40;;
71080;SDS011;58740;50.672;18.690;2023-02-28T09:18:45;9.30;;;3.60;;
71080;SDS011;58740;50.672;18.690;2023-02-28T09:21:15;8.20;;;3.30;;
71080;SDS011;58740;50.672;18.690;2023-02-28T09:23:48;7.60;;;3.20;;
71080;SDS011;58740;50.672;18.690;2023-02-28T09:26:26;7.30;;;3.40;;
71080;SDS011;58740;50.672;18.690;2023-02-28T09:29:09;12.30;;;5.80;;
71080;SDS011;58740;50.672;18.690;2023-02-28T09:31:38;8.60;;;3.60;;
71080;SDS011;58740;50.672;18.690;2023-02-28T09:34:06;11.00;;;5.10;;
71080;SDS011;58740;50.672;18.690;2023-02-28T09:36:34;10.40;;;4.70;;
71080;SDS011;58740;50.672;18.690;2023-02-28T09:39:12;9.10;;;3.80;;
71080;SDS011;58740;50.672;18.690;2023-02-28T09:41:45;7.70;;;2.20;;
71080;SDS011;58740;50.672;18.690;2023-02-28T09:44:40;9.00;;;4.40;;
71080;SDS011;58740;50.672;18.690;2023-02-28T09:47:33;9.40;;;3.30;;
71080;SDS011;58740;50.672;18.690;2023-02-28T09:50:18;8.10;;;3.30;;
71080;SDS011;58740;50.672;18.690;2023-02-28T09:52:57;9.00;;;4.00;;
71080;SDS011;58740;50.672;18.690;2023-02-28T09:56:04;11.90;;;5.50;;
71080;SDS011;58740;50.672;18.690;2023-02-28T10:10:56;11.30;;;4.90;;
71080;SDS011;58740;50.672;18.690;2023-02-28T10:13:36;7.90;;;3.90;;
71080;SDS011;58740;50.672;18.690;2023-02-28T10:16:13;9.00;;;3.50;;
71080;SDS011;58740;50.672;18.690;2023-02-28T10:18:52;9.00;;;4.10;;
71080;SDS011;58740;50.672;18.690;2023-02-28T10:21:39;10.70;;;5.00;;
71080;SDS011;58740;50.672;18.690;2023-02-28T10:24:20;9.90;;;4.60;;
71080;SDS011;58740;50.672;18.690;2023-02-28T10:27:00;10.00;;;4.00;;
71080;SDS011;58740;50.672;18.690;2023-02-28T10:29:38;10.80;;;4.80;;
71080;SDS011;58740;50.672;18.690;2023-02-28T10:32:14;7.80;;;3.90;;
71080;SDS011;58740;50.672;18.690;2023-02-28T10:34:51;9.10;;;4.30;;
71080;SDS011;58740;50.672;18.690;2023-02-28T10:37:23;8.70;;;3.50;;
71080;SDS011;58740;50.672;18.690;2023-02-28T10:39:50;8.60;;;4.10;;
71080;SDS011;58740;50.672;18.690;2023-02-28T10:42:27;11.40;;;4.60;;
71080;SDS011;58740;50.672;18.690;2023-02-28T10:45:11;14.80;;;8.30;;
71080;SDS011;58740;50.672;18.690;2023-02-28T10:47:56;12.80;;;5.00;;
71080;SDS011;58740;50.672;18.690;2023-02-28T10:56:06;8.90;;;4.30;;
71080;SDS011;58740;50.672;18.690;2023-02-28T11:01:45;11.00;;;5.60;;
71080;SDS011;58740;50.672;18.690;2023-02-28T11:09:36;11.80;;;5.10;;
71080;SDS011;58740;50.672;18.690;2023-02-28T11:12:17;11.20;;;4.90;;
71080;SDS011;58740;50.672;18.690;2023-02-28T11:14:52;9.80;;;4.40;;
71080;SDS011;58740;50.672;18.690;2023-02-28T11:17:26;11.60;;;5.60;;
71080;SDS011;58740;50.672;18.690;2023-02-28T11:19:59;10.60;;;5.90;;
71080;SDS011;58740;50.672;18.690;2023-02-28T11:22:36;10.40;;;4.80;;
71080;SDS011;58740;50.672;18.690;2023-02-28T11:25:09;9.80;;;4.80;;
71080;SDS011;58740;50.672;18.690;2023-02-28T11:27:56;10.70;;;4.40;;
71080;SDS011;58740;50.672;18.690;2023-02-28T11:30:39;8.50;;;4.10;;
71080;SDS011;58740;50.672;18.690;2023-02-28T11:33:26;13.00;;;6.10;;
71080;SDS011;58740;50.672;18.690;2023-02-28T11:36:24;14.70;;;6.70;;
71080;SDS011;58740;50.672;18.690;2023-02-28T11:39:09;11.80;;;4.40;;
71080;SDS011;58740;50.672;18.690;2023-02-28T11:50:26;11.20;;;5.30;;
71080;SDS011;58740;50.672;18.690;2023-02-28T11:56:10;11.30;;;5.90;;
71080;SDS011;58740;50.672;18.690;2023-02-28T11:59:36;10.40;;;4.90;;
71080;SDS011;58740;50.672;18.690;2023-02-28T12:11:39;8.80;;;4.70;;
71080;SDS011;58740;50.672;18.690;2023-02-28T12:14:35;10.40;;;4.70;;
71080;SDS011;58740;50.672;18.690;2023-02-28T12:24:04;8.80;;;4.60;;
71080;SDS011;58740;50.672;18.690;2023-02-28T12:26:51;9.60;;;4.80;;
71080;SDS011;58740;50.672;18.690;2023-02-28T12:29:32;8.30;;;4.00;;
71080;SDS011;58740;50.672;18.690;2023-02-28T12:32:21;9.30;;;4.90;;
71080;SDS011;58740;50.672;18.690;2023-02-28T12:35:01;13.30;;;6.50;;
71080;SDS011;58740;50.672;18.690;2023-02-28T12:37:38;12.40;;;6.70;;
71080;SDS011;58740;50.672;18.690;2023-02-28T12:40:15;12.00;;;5.50;;
71080;SDS011;58740;50.672;18.690;2023-02-28T12:42:52;12.00;;;5.00;;
71080;SDS011;58740;50.672;18.690;2023-02-28T12:45:55;9.80;;;4.60;;
71080;SDS011;58740;50.672;18.690;2023-02-28T12:48:40;9.80;;;4.60;;
71080;SDS011;58740;50.672;18.690;2023-02-28T12:51:16;10.00;;;4.70;;
71080;SDS011;58740;50.672;18.690;2023-02-28T12:54:02;13.40;;;5.50;;
71080;SDS011;58740;50.672;18.690;2023-02-28T12:59:50;11.10;;;6.30;;
71080;SDS011;58740;50.672;18.690;2023-02-28T13:09:01;11.90;;;5.40;;
71080;SDS011;58740;50.672;18.690;2023-02-28T13:11:41;9.30;;;5.00;;
71080;SDS011;58740;50.672;18.690;2023-02-28T13:14:34;11.60;;;4.80;;
71080;SDS011;58740;50.672;18.690;2023-02-28T13:22:47;13.00;;;6.30;;
71080;SDS011;58740;50.672;18.690;2023-02-28T13:27:52;12.60;;;7.10;;
71080;SDS011;58740;50.672;18.690;2023-02-28T13:33:28;10.70;;;5.40;;
71080;SDS011;58740;50.672;18.690;2023-02-28T13:38:52;10.90;;;5.20;;
71080;SDS011;58740;50.672;18.690;2023-02-28T14:06:34;11.10;;;5.10;;
71080;SDS011;58740;50.672;18.690;2023-02-28T14:15:54;10.50;;;5.50;;
71080;SDS011;58740;50.672;18.690;2023-02-28T14:18:25;9.30;;;4.20;;
71080;SDS011;58740;50.672;18.690;2023-02-28T14:21:01;9.60;;;5.10;;
71080;SDS011;58740;50.672;18.690;2023-02-28T14:23:44;11.10;;;5.50;;
71080;SDS011;58740;50.672;18.690;2023-02-28T14:33:27;15.00;;;6.90;;
71080;SDS011;58740;50.672;18.690;2023-02-28T14:36:22;11.00;;;4.90;;
71080;SDS011;58740;50.672;18.690;2023-02-28T14:38:58;11.90;;;5.80;;
71080;SDS011;58740;50.672;18.690;2023-02-28T14:41:38;11.50;;;5.30;;
71080;SDS011;58740;50.672;18.690;2023-02-28T14:44:23;11.80;;;5.50;;
71080;SDS011;58740;50.672;18.690;2023-02-28T14:46:54;11.20;;;5.40;;
71080;SDS011;58740;50.672;18.690;2023-02-28T14:49:34;11.50;;;4.80;;
71080;SDS011;58740;50.672;18.690;2023-02-28T14:55:01;11.70;;;5.40;;
71080;SDS011;58740;50.672;18.690;2023-02-28T14:57:34;10.70;;;5.70;;
71080;SDS011;58740;50.672;18.690;2023-02-28T15:00:19;13.30;;;6.00;;
71080;SDS011;58740;50.672;18.690;2023-02-28T15:02:58;11.40;;;5.70;;
71080;SDS011;58740;50.672;18.690;2023-02-28T15:05:34;12.80;;;6.70;;
71080;SDS011;58740;50.672;18.690;2023-02-28T15:10:51;13.10;;;7.00;;
71080;SDS011;58740;50.672;18.690;2023-02-28T15:13:29;15.30;;;5.50;;
71080;SDS011;58740;50.672;18.690;2023-02-28T15:16:02;12.30;;;5.20;;
71080;SDS011;58740;50.672;18.690;2023-02-28T15:21:23;13.40;;;6.10;;
71080;SDS011;58740;50.672;18.690;2023-02-28T15:26:52;12.60;;;6.00;;
71080;SDS011;58740;50.672;18.690;2023-02-28T15:29:25;14.60;;;7.20;;
71080;SDS011;58740;50.672;18.690;2023-02-28T15:34:38;24.80;;;14.30;;
71080;SDS011;58740;50.672;18.690;2023-02-28T15:40:09;14.80;;;6.20;;
71080;SDS011;58740;50.672;18.690;2023-02-28T15:42:39;13.80;;;6.70;;
71080;SDS011;58740;50.672;18.690;2023-02-28T15:45:27;15.80;;;6.80;;
71080;SDS011;58740;50.672;18.690;2023-02-28T15:47:59;10.00;;;5.50;;
71080;SDS011;58740;50.672;18.690;2023-02-28T15:50:41;12.50;;;6.10;;
71080;SDS011;58740;50.672;18.690;2023-02-28T15:53:15;13.50;;;6.60;;
71080;SDS011;58740;50.672;18.690;2023-02-28T15:55:53;13.90;;;6.20;;
71080;SDS011;58740;50.672;18.690;2023-02-28T15:58:25;10.10;;;4.60;;
71080;SDS011;58740;50.672;18.690;2023-02-28T16:01:05;15.00;;;6.50;;
71080;SDS011;58740;50.672;18.690;2023-02-28T16:03:47;17.30;;;7.70;;
71080;SDS011;58740;50.672;18.690;2023-02-28T16:06:27;12.60;;;6.50;;
71080;SDS011;58740;50.672;18.690;2023-02-28T16:09:01;14.00;;;7.10;;
71080;SDS011;58740;50.672;18.690;2023-02-28T16:11:32;11.30;;;5.50;;
71080;SDS011;58740;50.672;18.690;2023-02-28T16:14:02;13.10;;;7.10;;
71080;SDS011;58740;50.672;18.690;2023-02-28T16:16:31;12.80;;;7.10;;
71080;SDS011;58740;50.672;18.690;2023-02-28T16:19:00;14.70;;;6.20;;
71080;SDS011;58740;50.672;18.690;2023-02-28T16:21:28;19.10;;;9.30;;
71080;SDS011;58740;50.672;18.690;2023-02-28T16:23:56;17.70;;;7.70;;
71080;SDS011;58740;50.672;18.690;2023-02-28T16:26:24;13.90;;;7.70;;
71080;SDS011;58740;50.672;18.690;2023-02-28T16:28:54;15.10;;;8.60;;
71080;SDS011;58740;50.672;18.690;2023-02-28T16:31:23;20.00;;;8.50;;
71080;SDS011;58740;50.672;18.690;2023-02-28T16:33:50;19.30;;;9.50;;
71080;SDS011;58740;50.672;18.690;2023-02-28T16:36:21;15.80;;;7.90;;
71080;SDS011;58740;50.672;18.690;2023-02-28T16:38:54;17.00;;;8.10;;
71080;SDS011;58740;50.672;18.690;2023-02-28T16:41:24;20.60;;;10.00;;
71080;SDS011;58740;50.672;18.690;2023-02-28T16:43:55;19.70;;;9.80;;
71080;SDS011;58740;50.672;18.690;2023-02-28T16:46:30;18.90;;;9.80;;
71080;SDS011;58740;50.672;18.690;2023-02-28T16:49:02;22.50;;;11.70;;
71080;SDS011;58740;50.672;18.690;2023-02-28T16:51:29;28.20;;;13.50;;
71080;SDS011;58740;50.672;18.690;2023-02-28T16:54:01;30.60;;;14.60;;
71080;SDS011;58740;50.672;18.690;2023-02-28T16:56:29;39.40;;;17.20;;
71080;SDS011;58740;50.672;18.690;2023-02-28T16:59:01;35.20;;;16.00;;
71080;SDS011;58740;50.672;18.690;2023-02-28T17:01:29;36.40;;;15.50;;
71080;SDS011;58740;50.672;18.690;2023-02-28T17:03:58;28.80;;;13.50;;
71080;SDS011;58740;50.672;18.690;2023-02-28T17:06:28;39.00;;;16.20;;
71080;SDS011;58740;50.672;18.690;2023-02-28T17:08:58;34.60;;;15.20;;
71080;SDS011;58740;50.672;18.690;2023-02-28T17:11:26;29.30;;;13.30;;
71080;SDS011;58740;50.672;18.690;2023-02-28T17:13:55;27.90;;;14.20;;
71080;SDS011;58740;50.672;18.690;2023-02-28T17:16:29;30.30;;;14.00;;
71080;SDS011;58740;50.672;18.690;2023-02-28T17:19:02;30.70;;;13.90;;
71080;SDS011;58740;50.672;18.690;2023-02-28T17:21:33;30.50;;;15.10;;
71080;SDS011;58740;50.672;18.690;2023-02-28T17:24:01;26.90;;;13.60;;
71080;SDS011;58740;50.672;18.690;2023-02-28T17:26:30;31.50;;;13.50;;
71080;SDS011;58740;50.672;18.690;2023-02-28T17:28:59;22.90;;;11.20;;
71080;SDS011;58740;50.672;18.690;2023-02-28T17:31:27;27.90;;;13.90;;
71080;SDS011;58740;50.672;18.690;2023-02-28T17:33:55;29.80;;;14.50;;
71080;SDS011;58740;50.672;18.690;2023-02-28T17:36:26;32.00;;;14.80;;
71080;SDS011;58740;50.672;18.690;2023-02-28T17:38:55;36.50;;;17.00;;
71080;SDS011;58740;50.672;18.690;2023-02-28T17:41:23;38.30;;;18.40;;
71080;SDS011;58740;50.672;18.690;2023-02-28T17:43:52;41.50;;;18.60;;
71080;SDS011;58740;50.672;18.690;2023-02-28T17:46:22;93.20;;;37.40;;
71080;SDS011;58740;50.672;18.690;2023-02-28T17:48:52;102.00;;;36.40;;